Time;durP1;ratioP1;P1;durP2;ratioP2;P2;SDS_P1;SDS_P2;PMS_P1;PMS_P2;Temp;Humidity;BMP_temperature;BMP_pressure;BME280_temperature;BME280_humidity;BME280_pressure;Samples;Min_cycle;Max_cycle;Signal;HPM_P1;HPM_P2
2023/05/02 00:05:11;;;;;;;37.92;17.77;;;11.00;99.90;;;;;;10123377;29;20205;-75
2023/05/02 00:10:32;;;;;;;34.63;18.05;;;11.00;99.90;;;;;;10118696;29;20416;-77
2023/05/02 00:15:53;;;;;;;37.83;18.20;;;10.90;99.90;;;;;;10073563;29;20270;-77
2023/05/02 00:21:13;;;;;;;33.80;18.40;;;10.90;99.90;;;;;;10079710;29;20195;-75
2023/05/02 00:26:34;;;;;;;31.33;16.60;;;10.90;99.90;;;;;;10103037;29;20228;-77
2023/05/02 00:31:56;;;;;;;35.67;16.27;;;10.90;1.00;;;;;;10117788;29;20237;-74
2023/05/02 00:37:17;;;;;;;31.83;16.63;;;10.80;1.00;;;;;;10130077;29;20195;-77
2023/05/02 00:42:39;;;;;;;31.10;16.90;;;10.70;1.00;;;;;;10085362;29;20209;-74
2023/05/02 00:48:00;;;;;;;32.03;16.60;;;10.70;1.00;;;;;;10079020;29;20201;-77
2023/05/02 00:53:21;;;;;;;29.67;16.67;;;10.60;1.00;;;;;;10079990;29;20239;-78
2023/05/02 00:58:43;;;;;;;26.93;15.80;;;;;;;;;;10117617;29;20200;-74
2023/05/02 01:04:12;;;;;;;34.53;17.35;;;;;;;;;;10110762;29;20233;-77
2023/05/02 01:09:39;;;;;;;29.00;16.20;;;;;;;;;;10117486;29;20274;-78
2023/05/02 01:15:04;;;;;;;26.17;13.80;;;;;;;;;;10072907;29;20265;-77
2023/05/02 01:20:27;;;;;;;23.40;13.33;;;;;;;;;;10085326;29;20273;-75
2023/05/02 01:26:21;;;;;;;28.93;14.97;;;;;;;;;;10085289;29;20395;-76
2023/05/02 01:31:43;;;;;;;24.47;14.50;;;;;;;;;;10041477;29;20310;-77
2023/05/02 01:37:05;;;;;;;21.83;12.60;;;;;;;;;;10028630;29;20206;-73
2023/05/02 01:42:27;;;;;;;18.90;11.27;;;;;;;;;;10030803;29;20214;-76
2023/05/02 01:47:50;;;;;;;16.13;10.70;;;;;;;;;;10027150;29;20217;-76
2023/05/02 01:53:13;;;;;;;20.40;11.00;;;;;;;;;;10030456;29;20428;-77
2023/05/02 01:58:35;;;;;;;21.23;10.87;;;;;;;;;;10030394;29;20223;-74
2023/05/02 02:03:57;;;;;;;18.90;10.23;;;;;;;;;;10004964;29;20566;-76
2023/05/02 02:09:19;;;;;;;19.05;10.30;;;;;;;;;;10083832;29;20201;-76
2023/05/02 02:14:47;;;;;;;22.15;11.57;;;;;;;;;;10082192;29;20229;-77
2023/05/02 02:20:10;;;;;;;24.30;12.83;;;;;;;;;;10084129;29;20198;-79
2023/05/02 02:25:33;;;;;;;18.88;11.15;;;;;;;;;;10112119;29;20265;-77
2023/05/02 02:30:54;;;;;;;21.02;11.73;;;;;;;;;;10122084;29;20237;-77
2023/05/02 02:36:37;;;;;;;19.17;11.37;;;10.10;1.00;;;;;;10116355;29;20592;-78
2023/05/02 02:42:34;;;;;;;22.20;12.47;;;10.10;1.00;;;;;;10076890;29;20245;-78
2023/05/02 02:48:19;;;;;;;24.00;13.30;;;10.10;1.00;;;;;;10082798;29;20243;-78
2023/05/02 02:54:04;;;;;;;21.20;13.77;;;10.00;1.00;;;;;;10101019;29;20538;-73
2023/05/02 02:59:40;;;;;;;21.80;11.50;;;9.90;1.00;;;;;;10119890;29;20214;-76
2023/05/02 03:05:02;;;;;;;19.13;11.80;;;;;;;;;;10120853;29;20208;-78
2023/05/02 03:10:24;;;;;;;19.03;10.83;;;9.70;1.00;;;;;;10100730;29;20216;-75
2023/05/02 03:15:52;;;;;;;15.57;10.03;;;9.90;1.00;;;;;;10080920;29;20227;-77
2023/05/02 03:21:20;;;;;;;19.53;10.70;;;9.90;1.00;;;;;;10085704;29;20205;-78
2023/05/02 03:26:42;;;;;;;18.43;9.93;;;9.90;1.00;;;;;;10119029;29;20200;-77
2023/05/02 03:32:05;;;;;;;17.50;10.23;;;9.80;1.00;;;;;;10131992;29;20237;-77
2023/05/02 03:37:29;;;;;;;16.60;9.60;;;9.80;1.00;;;;;;10082935;29;20275;-77
2023/05/02 03:42:52;;;;;;;16.53;9.70;;;9.90;1.00;;;;;;10079975;29;20212;-77
2023/05/02 03:48:20;;;;;;;22.07;10.80;;;10.00;1.00;;;;;;10079882;29;20206;-78
2023/05/02 03:53:41;;;;;;;16.77;10.60;;;10.10;99.90;;;;;;10106041;29;20240;-76
2023/05/02 03:59:03;;;;;;;22.60;11.63;;;10.10;99.90;;;;;;10126062;29;20228;-77
2023/05/02 04:04:25;;;;;;;33.17;15.53;;;10.00;99.90;;;;;;10131191;29;20224;-77
2023/05/02 04:09:47;;;;;;;31.37;15.20;;;10.00;1.00;;;;;;10111818;29;20280;-77
2023/05/02 04:15:10;;;;;;;28.27;14.93;;;9.90;1.00;;;;;;10070280;29;20233;-76
2023/05/02 04:20:32;;;;;;;28.87;13.67;;;10.00;1.00;;;;;;10091936;29;20431;-76
2023/05/02 04:25:55;;;;;;;23.17;12.40;;;10.00;99.90;;;;;;10092139;29;20273;-77
2023/05/02 04:31:24;;;;;;;20.60;10.87;;;10.00;1.00;;;;;;10103636;29;20321;-77
2023/05/02 04:36:46;;;;;;;15.43;9.90;;;10.00;1.00;;;;;;10116950;29;20193;-77
2023/05/02 04:42:13;;;;;;;17.47;10.77;;;10.00;1.00;;;;;;10075941;29;20403;-77
2023/05/02 04:47:42;;;;;;;22.40;12.83;;;10.00;53.20;;;;;;10078067;29;20197;-79
2023/05/02 04:53:03;;;;;;;20.10;13.00;;;9.90;99.90;;;;;;10064182;29;20239;-75
2023/05/02 04:58:26;;;;;;;24.10;15.87;;;10.00;1.00;;;;;;10064812;29;20205;-78
2023/05/02 05:03:53;;;;;;;32.37;22.70;;;10.10;1.00;;;;;;10064873;29;20213;-78
2023/05/02 05:09:15;;;;;;;30.17;18.40;;;10.40;99.90;;;;;;10071794;29;20394;-76
2023/05/02 05:14:36;;;;;;;24.50;15.60;;;10.60;99.90;;;;;;10060796;29;20615;-77
2023/05/02 05:19:57;;;;;;;24.30;14.90;;;10.60;79.60;;;;;;10091018;29;20460;-77
2023/05/02 05:25:19;;;;;;;19.07;11.40;;;10.80;95.40;;;;;;10094689;29;20281;-77
2023/05/02 05:30:43;;;;;;;19.53;10.43;;;11.00;35.10;;;;;;10129031;29;20236;-77
2023/05/02 05:36:09;;;;;;;16.83;9.13;;;11.10;1.00;;;;;;10109372;29;20531;-77
2023/05/02 05:41:30;;;;;;;17.17;9.27;;;11.30;1.00;;;;;;10100117;29;20198;-75
2023/05/02 05:46:58;;;;;;;11.63;7.87;;;11.40;1.00;;;;;;10077168;29;20394;-77
2023/05/02 05:52:21;;;;;;;16.67;7.97;;;11.60;1.00;;;;;;10112125;29;20264;-77
2023/05/02 05:57:43;;;;;;;9.67;7.53;;;11.70;1.00;;;;;;10115600;29;20249;-78
2023/05/02 06:03:05;;;;;;;9.38;7.20;;;11.80;1.00;;;;;;10120936;29;20398;-75
2023/05/02 06:08:28;;;;;;;14.40;7.57;;;11.80;1.00;;;;;;10117958;29;20215;-75
2023/05/02 06:13:53;;;;;;;12.98;7.95;;;11.80;1.00;;;;;;10098393;29;20223;-78
2023/05/02 06:19:15;;;;;;;13.10;8.10;;;11.80;1.00;;;;;;10085716;29;20209;-78
2023/05/02 06:24:36;;;;;;;13.83;8.07;;;12.00;1.00;;;;;;10121471;29;20209;-78
2023/05/02 06:29:57;;;;;;;15.07;9.30;;;12.00;1.00;;;;;;10134612;29;20231;-77
2023/05/02 06:35:18;;;;;;;14.40;8.55;;;12.20;1.00;;;;;;10128702;29;20233;-78
2023/05/02 06:40:44;;;;;;;13.77;8.00;;;12.40;1.00;;;;;;10124536;29;20196;-77
2023/05/02 06:46:05;;;;;;;13.57;8.05;;;12.60;1.00;;;;;;10069102;29;20369;-75
2023/05/02 06:51:26;;;;;;;12.63;7.45;;;12.90;1.00;;;;;;10105664;29;20276;-76
2023/05/02 06:56:47;;;;;;;9.98;6.40;;;13.10;1.00;;;;;;10121283;29;20241;-78
2023/05/02 07:02:09;;;;;;;15.43;5.60;;;13.20;1.00;;;;;;10133112;29;20487;-77
2023/05/02 07:07:30;;;;;;;10.13;6.15;;;13.30;1.00;;;;;;10102287;29;20293;-77
2023/05/02 07:12:51;;;;;;;9.45;6.22;;;13.60;1.00;;;;;;10113631;29;20242;-75
2023/05/02 07:18:12;;;;;;;12.77;5.82;;;14.50;99.90;;;;;;10098493;29;20208;-77
2023/05/02 07:23:34;;;;;;;16.05;6.10;;;15.80;70.40;;;;;;10120084;29;20199;-78
2023/05/02 07:28:54;;;;;;;20.52;6.03;;;17.10;1.00;;;;;;10119561;29;20372;-79
2023/05/02 07:34:16;;;;;;;19.55;4.20;;;;;;;;;;10112462;29;20236;-75
2023/05/02 07:39:37;;;;;;;18.98;4.40;;;18.80;1.00;;;;;;10104010;29;20481;-77
2023/05/02 07:44:58;;;;;;;18.90;3.75;;;19.20;1.00;;;;;;10080856;29;20206;-77
2023/05/02 07:50:19;;;;;;;7.15;2.97;;;19.50;99.90;;;;;;10102460;29;20245;-78
2023/05/02 07:55:41;;;;;;;7.25;2.63;;;;;;;;;;10104971;29;20288;-79
2023/05/02 08:01:02;;;;;;;7.75;3.35;;;20.60;99.90;;;;;;10117814;29;20194;-77
2023/05/02 08:06:24;;;;;;;8.00;3.33;;;20.60;99.90;;;;;;10112740;29;20202;-75
2023/05/02 08:11:45;;;;;;;16.23;3.00;;;;;;;;;;10123236;29;20222;-79
2023/05/02 08:17:06;;;;;;;9.07;3.55;;;21.10;1.00;;;;;;10081095;29;20213;-77
2023/05/02 08:22:27;;;;;;;13.13;3.50;;;20.80;1.00;;;;;;10117608;29;20205;-75
2023/05/02 08:27:48;;;;;;;4.70;2.40;;;;;;;;;;10117523;29;20243;-77
2023/05/02 08:33:10;;;;;;;7.65;3.03;;;22.20;68.70;;;;;;10097440;29;20241;-74
2023/05/02 08:38:31;;;;;;;13.68;3.05;;;22.10;8.40;;;;;;10117805;29;20200;-75
2023/05/02 08:43:52;;;;;;;20.75;2.95;;;22.10;99.90;;;;;;10083159;29;20286;-79
2023/05/02 08:49:15;;;;;;;16.75;3.38;;;22.30;61.70;;;;;;10100181;29;20213;-78
2023/05/02 08:54:37;;;;;;;24.17;2.45;;;;;;;;;;10117234;29;20329;-75
2023/05/02 08:59:59;;;;;;;15.05;2.97;;;;;;;;;;10117420;29;20217;-76
2023/05/02 09:05:23;;;;;;;5.82;1.80;;;;;;;;;;10111751;29;20208;-76
2023/05/02 09:10:45;;;;;;;3.58;1.90;;;;;;;;;;10117232;29;20224;-76
2023/05/02 09:16:16;;;;;;;6.65;2.35;;;;;;;;;;10075718;29;20322;-75
2023/05/02 09:21:40;;;;;;;120.65;8.65;;;;;;;;;;10115856;29;20221;-77
2023/05/02 09:27:03;;;;;;;16.27;3.80;;;;;;;;;;10115880;29;20233;-77
2023/05/02 09:32:44;;;;;;;10.05;2.70;;;;;;;;;;10108697;29;20245;-78
2023/05/02 09:38:18;;;;;;;7.15;4.25;;;;;;;;;;10046652;29;20192;-74
2023/05/02 09:43:40;;;;;;;7.53;4.75;;;;;;;;;;10089715;29;20218;-77
2023/05/02 09:49:02;;;;;;;13.13;5.90;;;;;;;;;;10117737;29;20237;-77
2023/05/02 09:54:37;;;;;;;17.58;6.15;;;;;;;;;;10123440;29;20221;-80
2023/05/02 09:59:59;;;;;;;10.82;6.50;;;;;;;;;;10117468;29;20205;-78
2023/05/02 10:05:20;;;;;;;12.57;7.05;;;;;;;;;;10122926;29;20198;-78
2023/05/02 10:10:45;;;;;;;8.77;6.40;;;;;;;;;;10131013;29;20406;-75
2023/05/02 10:16:07;;;;;;;9.63;6.60;;;;;;;;;;10080083;29;20282;-77
2023/05/02 10:21:29;;;;;;;11.27;5.47;;;;;;;;;;10087303;29;20213;-74
2023/05/02 10:26:51;;;;;;;20.80;7.30;;;;;;;;;;10122414;29;20217;-76
2023/05/02 10:32:14;;;;;;;181.50;12.60;;;;;;;;;;10121807;29;20298;-76
2023/05/02 10:37:37;;;;;;;7.05;5.25;;;;;;;;;;10128346;29;20552;-75
2023/05/02 10:42:58;;;;;;;9.85;5.78;;;;;;;;;;10094159;29;20485;-75
2023/05/02 10:48:21;;;;;;;51.60;7.10;;;;;;;;;;10081135;29;20202;-75
2023/05/02 10:53:45;;;;;;;21.00;6.82;;;;;;;;;;10107609;29;20459;-75
2023/05/02 10:59:25;;;;;;;15.80;6.03;;;;;;;;;;10119976;29;20496;-76
2023/05/02 11:05:06;;;;;;;14.68;5.45;;;;;;;;;;10118007;29;20201;-73
2023/05/02 11:10:27;;;;;;;13.32;4.85;;;;;;;;;;10104841;29;20242;-76
2023/05/02 11:15:49;;;;;;;25.90;6.30;;;;;;;;;;10081334;29;20232;-76
2023/05/02 11:21:31;;;;;;;28.85;6.32;;;;;;;;;;10082277;29;20562;-74
2023/05/02 11:26:54;;;;;;;4.97;4.40;;;;;;;;;;10082850;29;20481;-74
2023/05/02 11:32:15;;;;;;;4.05;3.13;;;;;;;;;;10079831;29;20243;-75
2023/05/02 11:37:37;;;;;;;5.97;2.72;;;;;;;;;;10104740;29;20283;-77
2023/05/02 11:42:59;;;;;;;11.95;2.53;;;;;;;;;;10091911;29;20211;-73
2023/05/02 11:48:22;;;;;;;11.20;2.03;;;;;;;;;;10078296;29;20207;-76
2023/05/02 11:53:44;;;;;;;2.22;1.40;;;;;;;;;;10095387;29;20550;-77
2023/05/02 11:59:07;;;;;;;6.95;2.00;;;;;;;;;;10115167;29;20229;-75
2023/05/02 12:04:28;;;;;;;6.75;2.10;;;;;;;;;;10080307;29;20289;-74
2023/05/02 12:09:51;;;;;;;5.35;2.35;;;;;;;;;;10102213;29;20208;-78
2023/05/02 12:15:12;;;;;;;3.20;2.13;;;;;;;;;;10084308;29;20229;-77
2023/05/02 12:20:35;;;;;;;6.63;1.73;;;15.00;99.90;;;;;;10079877;29;20220;-79
2023/05/02 12:25:57;;;;;;;2.58;1.33;;;15.30;91.00;;;;;;10107418;29;20215;-76
2023/05/02 12:31:19;;;;;;;2.42;1.70;;;15.80;1.00;;;;;;10104808;29;20344;-76
2023/05/02 12:36:44;;;;;;;6.75;1.60;;;16.00;1.00;;;;;;10087657;29;20231;-74
2023/05/02 12:42:12;;;;;;;18.42;1.80;;;15.60;1.00;;;;;;10095428;29;20439;-75
2023/05/02 12:47:44;;;;;;;4.80;1.92;;;15.60;1.00;;;;;;10079215;29;20265;-79
2023/05/02 12:53:06;;;;;;;9.25;2.10;;;15.50;1.00;;;;;;10077768;29;20229;-76
2023/05/02 12:58:28;;;;;;;9.48;2.67;;;15.30;1.00;;;;;;10100259;29;20283;-74
2023/05/02 13:03:50;;;;;;;4.72;2.08;;;14.80;1.00;;;;;;10117468;29;20419;-74
2023/05/02 13:09:11;;;;;;;6.57;2.60;;;14.80;1.00;;;;;;10117538;29;20481;-76
2023/05/02 13:14:32;;;;;;;7.22;2.55;;;15.00;1.00;;;;;;10089875;29;20307;-77
2023/05/02 13:19:53;;;;;;;11.98;3.72;;;15.10;1.00;;;;;;10086159;29;20201;-78
2023/05/02 13:25:20;;;;;;;7.45;3.30;;;15.20;1.00;;;;;;10084047;29;20228;-78
2023/05/02 13:30:41;;;;;;;10.90;3.22;;;15.20;1.00;;;;;;10085789;29;20435;-77
2023/05/02 13:36:02;;;;;;;10.45;3.83;;;15.10;1.00;;;;;;10085375;29;20232;-74
2023/05/02 13:41:24;;;;;;;8.88;2.47;;;14.90;1.00;;;;;;10084606;29;20504;-74
2023/05/02 13:46:45;;;;;;;9.27;3.40;;;14.70;1.00;;;;;;10084534;29;20280;-75
2023/05/02 13:52:06;;;;;;;12.70;4.45;;;14.60;1.00;;;;;;10083913;29;20193;-78
2023/05/02 13:57:27;;;;;;;12.27;4.32;;;14.60;1.00;;;;;;10084104;29;20260;-76
2023/05/02 14:02:48;;;;;;;7.72;3.92;;;14.80;1.00;;;;;;10084676;29;20197;-75
2023/05/02 14:08:10;;;;;;;15.30;3.25;;;14.70;1.00;;;;;;10084357;29;20607;-78
2023/05/02 14:13:31;;;;;;;6.78;2.65;;;14.80;1.00;;;;;;10082323;29;20557;-76
2023/05/02 14:18:52;;;;;;;10.13;2.58;;;15.00;1.00;;;;;;10083914;29;20523;-75
2023/05/02 14:24:15;;;;;;;7.35;2.42;;;15.10;1.00;;;;;;10083191;29;20435;-75
2023/05/02 14:29:36;;;;;;;11.40;2.78;;;15.00;1.00;;;;;;10069123;29;20293;-76
2023/05/02 14:34:57;;;;;;;4.35;2.53;;;;;;;;;;10083697;29;20554;-77
2023/05/02 14:40:18;;;;;;;11.23;3.50;;;;;;;;;;10082603;29;20245;-77
2023/05/02 14:45:39;;;;;;;8.25;3.45;;;14.30;1.00;;;;;;10082808;29;20261;-76
2023/05/02 14:51:03;;;;;;;8.82;3.60;;;14.40;1.00;;;;;;10082378;29;20276;-79
2023/05/02 14:56:24;;;;;;;15.25;4.93;;;;;;;;;;10083245;29;20303;-78
2023/05/02 15:01:45;;;;;;;11.45;3.60;;;14.00;36.70;;;;;;10079285;29;21819;-77
2023/05/02 15:07:06;;;;;;;15.38;3.42;;;14.00;1.00;;;;;;10081369;29;20200;-78
2023/05/02 15:12:28;;;;;;;10.05;2.88;;;13.70;1.00;;;;;;10082217;29;20234;-79
2023/05/02 15:17:48;;;;;;;8.45;3.08;;;13.80;1.00;;;;;;10080359;29;20498;-78
2023/05/02 15:23:10;;;;;;;8.32;3.50;;;13.80;1.00;;;;;;10081577;29;20357;-78
2023/05/02 15:28:31;;;;;;;9.05;3.38;;;13.80;1.00;;;;;;10084630;29;20483;-75
2023/05/02 15:33:52;;;;;;;8.35;2.45;;;13.90;1.00;;;;;;10081675;29;20236;-76
2023/05/02 15:39:13;;;;;;;5.63;2.50;;;14.10;1.00;;;;;;10083070;29;20198;-78
2023/05/02 15:44:38;;;;;;;6.80;3.17;;;13.90;1.00;;;;;;10044323;29;20201;-76
2023/05/02 15:49:59;;;;;;;15.82;3.30;;;13.80;1.00;;;;;;10068035;29;20251;-79
2023/05/02 15:55:20;;;;;;;11.23;3.38;;;13.60;1.00;;;;;;10080664;29;20461;-74
2023/05/02 16:00:42;;;;;;;10.70;3.42;;;13.60;1.00;;;;;;10082767;29;20486;-76
2023/05/02 16:06:05;;;;;;;8.68;2.65;;;13.60;1.00;;;;;;10080857;29;20212;-80
2023/05/02 16:11:26;;;;;;;5.88;1.95;;;13.40;1.00;;;;;;10081389;29;20279;-74
2023/05/02 16:16:47;;;;;;;7.97;2.38;;;13.40;1.00;;;;;;10071370;29;20606;-79
2023/05/02 16:22:09;;;;;;;5.03;1.98;;;13.40;1.00;;;;;;10081055;29;20198;-75
2023/05/02 16:27:30;;;;;;;5.00;2.00;;;13.40;1.00;;;;;;10080187;29;20203;-77
2023/05/02 16:32:51;;;;;;;8.02;2.55;;;13.30;1.00;;;;;;10078893;29;20302;-75
2023/05/02 16:38:12;;;;;;;6.38;2.40;;;13.30;1.00;;;;;;10079421;29;20262;-76
2023/05/02 16:43:34;;;;;;;6.50;2.72;;;13.30;1.00;;;;;;10078780;29;20224;-75
2023/05/02 16:48:55;;;;;;;3.95;1.98;;;13.20;1.00;;;;;;10079443;29;20277;-78
2023/05/02 16:54:17;;;;;;;7.65;3.30;;;13.10;1.00;;;;;;10080124;29;20226;-79
2023/05/02 16:59:38;;;;;;;6.75;3.65;;;13.10;1.00;;;;;;10079385;29;20262;-76
2023/05/02 17:04:59;;;;;;;9.23;4.43;;;13.00;1.00;;;;;;10079841;29;20209;-76
2023/05/02 17:10:21;;;;;;;6.22;2.75;;;12.70;99.90;;;;;;10079993;29;20202;-74
2023/05/02 17:15:42;;;;;;;4.15;2.22;;;12.50;99.90;;;;;;10078319;29;20245;-75
2023/05/02 17:21:04;;;;;;;12.27;4.90;;;12.50;1.00;;;;;;10042048;29;20201;-77
2023/05/02 17:26:25;;;;;;;9.75;5.05;;;12.50;63.40;;;;;;10041894;29;20208;-77
2023/05/02 17:31:46;;;;;;;6.47;3.28;;;12.40;1.00;;;;;;10054558;29;20301;-75
2023/05/02 17:37:07;;;;;;;10.65;5.78;;;12.30;57.20;;;;;;10080745;29;20233;-78
2023/05/02 17:42:28;;;;;;;8.00;3.90;;;12.20;1.00;;;;;;10079715;29;20563;-78
2023/05/02 17:47:49;;;;;;;8.17;3.33;;;12.10;68.60;;;;;;10083299;29;20207;-78
2023/05/02 17:53:11;;;;;;;12.88;4.60;;;12.00;93.90;;;;;;10080649;29;20227;-77
2023/05/02 17:58:34;;;;;;;8.98;4.65;;;11.80;1.00;;;;;;10084806;29;20272;-73
2023/05/02 18:03:56;;;;;;;7.20;4.33;;;11.70;1.00;;;;;;10089163;29;20229;-75
2023/05/02 18:09:17;;;;;;;11.20;5.30;;;11.70;99.90;;;;;;10087339;29;20230;-76
2023/05/02 18:14:38;;;;;;;9.07;5.40;;;11.70;99.90;;;;;;10086243;29;20225;-79
2023/05/02 18:20:02;;;;;;;14.90;7.20;;;11.80;99.90;;;;;;10085752;29;20412;-79
2023/05/02 18:25:24;;;;;;;10.43;4.95;;;11.60;99.90;;;;;;10085359;29;20235;-77
2023/05/02 18:30:45;;;;;;;4.87;2.77;;;;;;;;;;10084641;29;20431;-79
2023/05/02 18:36:07;;;;;;;8.55;2.70;;;11.40;1.00;;;;;;10084053;29;20257;-80
2023/05/02 18:41:27;;;;;;;5.70;2.38;;;11.40;1.00;;;;;;10084909;29;20195;-78
2023/05/02 18:46:49;;;;;;;5.22;2.60;;;;;;;;;;10085052;29;20205;-79
2023/05/02 18:52:10;;;;;;;6.37;3.13;;;11.20;1.00;;;;;;10084137;29;20209;-77
2023/05/02 18:57:35;;;;;;;7.45;4.95;;;;;;;;;;10085767;29;20229;-78
2023/05/02 19:02:57;;;;;;;18.27;9.67;;;;;;;;;;10083461;29;20516;-77
2023/05/02 19:08:18;;;;;;;25.00;9.57;;;;;;;;;;10081563;29;20213;-79
2023/05/02 19:13:39;;;;;;;14.55;7.15;;;10.80;1.00;;;;;;10081932;29;20227;-75
2023/05/02 19:19:01;;;;;;;10.43;6.00;;;10.70;1.00;;;;;;10081641;29;20273;-74
2023/05/02 19:24:21;;;;;;;9.30;5.97;;;10.60;1.00;;;;;;10081100;29;20233;-77
2023/05/02 19:29:43;;;;;;;9.07;5.93;;;10.50;1.00;;;;;;10081839;29;20241;-77
2023/05/02 19:35:05;;;;;;;17.23;8.80;;;10.50;1.00;;;;;;10080963;29;20233;-78
2023/05/02 19:40:27;;;;;;;28.73;15.37;;;10.40;1.00;;;;;;10080196;29;20209;-77
2023/05/02 19:45:50;;;;;;;18.90;9.53;;;;;;;;;;10081510;29;20208;-76
2023/05/02 19:51:11;;;;;;;11.97;7.13;;;;;;;;;;10081421;29;20254;-78
2023/05/02 19:56:33;;;;;;;14.77;10.53;;;;;;;;;;10079940;29;20444;-74
2023/05/02 20:01:54;;;;;;;18.43;10.20;;;;;;;;;;10080920;29;20274;-76
2023/05/02 20:07:16;;;;;;;27.27;14.70;;;;;;;;;;10080490;29;20197;-77
2023/05/02 20:12:37;;;;;;;19.43;10.27;;;;;;;;;;10079467;29;20210;-75
2023/05/02 20:18:00;;;;;;;13.67;7.70;;;;;;;;;;10080214;29;20232;-75
2023/05/02 20:23:22;;;;;;;15.63;9.33;;;;;;;;;;10078801;29;20196;-75
2023/05/02 20:28:44;;;;;;;14.43;8.17;;;;;;;;;;10041725;29;20481;-75
2023/05/02 20:34:06;;;;;;;11.43;7.03;;;;;;;;;;10041907;29;20229;-77
2023/05/02 20:39:27;;;;;;;20.70;9.87;;;;;;;;;;10038802;29;20219;-78
2023/05/02 20:44:54;;;;;;;16.87;10.23;;;;;;;;;;10078542;29;20204;-80
2023/05/02 20:50:16;;;;;;;16.40;8.87;;;;;;;;;;10078865;29;20455;-75
2023/05/02 20:55:37;;;;;;;17.97;10.87;;;;;;;;;;10079232;29;20337;-76
2023/05/02 21:00:58;;;;;;;14.00;8.23;;;;;;;;;;10078656;29;20500;-76
2023/05/02 21:06:20;;;;;;;15.97;6.83;;;;;;;;;;10078876;29;20198;-74
2023/05/02 21:11:41;;;;;;;9.53;6.70;;;;;;;;;;10078882;29;20244;-78
2023/05/02 21:17:03;;;;;;;8.63;5.40;;;;;;;;;;10077993;29;20235;-77
2023/05/02 21:22:25;;;;;;;8.53;5.20;;;;;;;;;;10077814;29;20230;-78
2023/05/02 21:27:46;;;;;;;7.13;4.03;;;;;;;;;;10078035;29;20284;-76
2023/05/02 21:33:09;;;;;;;6.57;3.93;;;;;;;;;;10045051;29;20254;-74
2023/05/02 21:38:30;;;;;;;5.53;3.20;;;;;;;;;;10047141;29;20198;-77
2023/05/02 21:43:52;;;;;;;6.27;3.17;;;;;;;;;;10092950;29;20319;-78
2023/05/02 21:49:14;;;;;;;7.43;4.67;;;;;;;;;;10084616;29;20197;-75
2023/05/02 21:54:35;;;;;;;27.40;10.63;;;;;;;;;;10085492;29;20523;-75
2023/05/02 21:59:56;;;;;;;35.07;16.60;;;8.30;99.90;;;;;;10083375;29;20490;-77
2023/05/02 22:05:17;;;;;;;45.53;18.93;;;8.10;1.00;;;;;;10084192;29;20279;-76
2023/05/02 22:10:41;;;;;;;42.40;19.40;;;;;;;;;;10085031;29;20462;-76
2023/05/02 22:16:02;;;;;;;44.33;20.27;;;7.90;1.00;;;;;;10083943;29;20241;-76
2023/05/02 22:21:23;;;;;;;59.13;23.33;;;;;;;;;;10084456;29;20215;-78
2023/05/02 22:26:48;;;;;;;38.43;16.80;;;;;;;;;;10070241;29;20209;-75
2023/05/02 22:32:09;;;;;;;36.57;16.97;;;7.80;1.00;;;;;;10068920;29;20251;-74
2023/05/02 22:37:30;;;;;;;42.70;17.13;;;7.80;1.00;;;;;;10082935;29;20290;-76
2023/05/02 22:42:51;;;;;;;44.10;19.03;;;7.70;1.00;;;;;;10082706;29;20391;-78
2023/05/02 22:48:12;;;;;;;43.97;22.33;;;;;;;;;;10081161;29;20400;-74
2023/05/02 22:53:34;;;;;;;51.73;25.40;;;;;;;;;;10083356;29;20209;-74
2023/05/02 22:58:55;;;;;;;47.13;22.63;;;;;;;;;;10083039;29;20228;-77
2023/05/02 23:04:16;;;;;;;40.50;19.03;;;6.70;99.90;;;;;;10081909;29;20209;-76
2023/05/02 23:09:37;;;;;;;36.93;18.17;;;6.80;1.00;;;;;;10081669;29;20517;-75
2023/05/02 23:14:59;;;;;;;34.50;16.93;;;6.70;1.00;;;;;;10081380;29;20233;-75
2023/05/02 23:20:21;;;;;;;38.00;18.60;;;6.70;1.00;;;;;;10096483;29;20213;-74
2023/05/02 23:25:42;;;;;;;38.77;18.40;;;6.80;1.00;;;;;;10082346;29;20243;-74
2023/05/02 23:31:04;;;;;;;32.43;17.47;;;6.70;1.00;;;;;;10078850;29;20257;-76
2023/05/02 23:36:26;;;;;;;32.27;16.23;;;6.60;1.00;;;;;;10080762;29;20236;-77
2023/05/02 23:41:47;;;;;;;34.03;13.20;;;6.70;99.90;;;;;;10080806;29;20273;-77
2023/05/02 23:47:08;;;;;;;24.73;11.07;;;6.80;1.00;;;;;;10080570;29;20224;-77
2023/05/02 23:52:29;;;;;;;26.53;10.77;;;6.90;1.00;;;;;;10080133;29;20230;-74
2023/05/02 23:57:50;;;;;;;20.50;10.00;;;6.90;1.00;;;;;;10081063;29;20308;-76
